createdAt,value
2022-08-22T00:00:37.698Z,57.85
2022-08-22T00:02:43.110Z,46.70
2022-08-22T00:03:25.138Z,58.35
2022-08-22T00:06:10.980Z,58.56
2022-08-22T00:08:49.459Z,58.41
2022-08-22T00:11:29.721Z,58.54
2022-08-22T00:14:03.785Z,58.72
2022-08-22T00:16:40.900Z,58.99
2022-08-22T00:19:23.174Z,58.94
2022-08-22T00:21:58.696Z,59.12
2022-08-22T00:24:32.296Z,59.16
2022-08-22T00:27:05.064Z,59.39
2022-08-22T00:29:38.601Z,59.32
2022-08-22T00:32:15.449Z,59.65
2022-08-22T00:34:52.160Z,59.30
2022-08-22T00:37:26.116Z,59.23
2022-08-22T00:39:59.521Z,59.24
2022-08-22T00:42:48.561Z,59.25
2022-08-22T00:45:48.016Z,59.73
2022-08-22T00:48:34.526Z,59.54
2022-08-22T00:51:25.887Z,59.81
2022-08-22T00:54:02.826Z,59.19
2022-08-22T00:56:53.342Z,59.97
2022-08-22T00:59:49.425Z,60.70
2022-08-22T01:02:32.935Z,60.87
2022-08-22T01:05:19.796Z,60.78
2022-08-22T01:08:08.275Z,60.96
2022-08-22T01:11:01.776Z,61.35
2022-08-22T01:13:50.730Z,61.24
2022-08-22T01:16:32.260Z,60.93
2022-08-22T01:19:22.174Z,61.26
2022-08-22T01:22:35.789Z,61.83
2022-08-22T01:25:49.930Z,61.59
2022-08-22T01:28:42.863Z,61.53
2022-08-22T01:31:45.831Z,62.17
2022-08-22T01:34:46.848Z,62.71
2022-08-22T01:37:35.105Z,62.55
2022-08-22T01:40:47.553Z,62.62
2022-08-22T01:43:59.701Z,62.16
2022-08-22T01:46:32.534Z,62.20
2022-08-22T01:49:12.120Z,61.91
2022-08-22T01:51:47.786Z,62.32
2022-08-22T01:54:27.983Z,62.53
2022-08-22T01:57:02.872Z,62.32
2022-08-22T01:59:42.145Z,62.50
2022-08-22T02:02:46.660Z,63.14
2022-08-22T02:05:24.878Z,62.85
2022-08-22T02:08:00.259Z,62.82
2022-08-22T02:10:45.122Z,62.89
2022-08-22T02:13:32.283Z,62.79
2022-08-22T02:16:10.878Z,62.99
2022-08-22T02:18:55.338Z,63.26
2022-08-22T02:21:30.775Z,63.25
2022-08-22T02:24:04.185Z,63.18
2022-08-22T02:26:45.985Z,63.23
2022-08-22T02:29:20.343Z,63.09
2022-08-22T02:31:55.589Z,63.32
2022-08-22T02:34:35.489Z,63.55
2022-08-22T02:37:15.024Z,63.38
2022-08-22T02:39:49.541Z,63.76
2022-08-22T02:42:24.824Z,63.89
2022-08-22T02:45:01.319Z,64.08
2022-08-22T02:47:37.318Z,64.22
2022-08-22T02:50:17.904Z,64.59
2022-08-22T02:52:55.697Z,64.08
2022-08-22T02:55:36.532Z,64.53
2022-08-22T02:58:11.299Z,64.45
2022-08-22T03:00:49.473Z,64.84
2022-08-22T03:03:22.477Z,64.77
2022-08-22T03:06:01.321Z,64.67
2022-08-22T03:08:32.597Z,64.98
2022-08-22T03:11:19.777Z,65.38
2022-08-22T03:14:04.653Z,65.23
2022-08-22T03:16:39.701Z,65.32
2022-08-22T03:19:18.435Z,65.32
2022-08-22T03:21:54.550Z,65.23
2022-08-22T03:24:32.551Z,65.24
2022-08-22T03:27:08.949Z,65.23
2022-08-22T03:29:40.388Z,65.42
2022-08-22T03:32:15.536Z,65.81
2022-08-22T03:35:02.089Z,65.88
2022-08-22T03:37:40.517Z,65.62
2022-08-22T03:40:31.692Z,65.73
2022-08-22T03:43:41.975Z,65.48
2022-08-22T03:46:39.168Z,65.61
2022-08-22T03:49:31.190Z,65.54
2022-08-22T03:52:18.177Z,65.45
2022-08-22T03:55:10.894Z,65.64
2022-08-22T03:58:27.820Z,66.34
2022-08-22T04:01:31.513Z,66.00
2022-08-22T04:04:24.373Z,65.84
2022-08-22T04:07:36.501Z,66.42
2022-08-22T04:10:29.938Z,66.33
2022-08-22T04:13:25.006Z,66.52
2022-08-22T04:16:26.323Z,66.68
2022-08-22T04:19:20.677Z,66.78
2022-08-22T04:22:18.711Z,67.26
2022-08-22T04:25:02.618Z,67.16
2022-08-22T04:27:39.259Z,66.92
2022-08-22T04:30:25.196Z,67.28
2022-08-22T04:32:58.326Z,67.75
2022-08-22T04:35:34.087Z,67.92
2022-08-22T04:38:14.712Z,67.89
2022-08-22T04:40:47.837Z,68.31
2022-08-22T04:43:21.431Z,68.40
2022-08-22T04:45:56.097Z,67.97
2022-08-22T04:48:32.445Z,67.88
2022-08-22T04:51:05.420Z,68.18
2022-08-22T04:53:57.012Z,68.26
2022-08-22T04:56:37.116Z,68.31
2022-08-22T04:59:11.482Z,68.61
2022-08-22T05:01:43.034Z,68.85
2022-08-22T05:04:16.541Z,68.91
2022-08-22T05:06:51.238Z,69.41
2022-08-22T05:09:24.751Z,69.67
2022-08-22T05:11:57.586Z,69.81
2022-08-22T05:14:30.395Z,69.34
2022-08-22T05:17:00.943Z,69.62
2022-08-22T05:19:33.252Z,69.75
2022-08-22T05:22:04.991Z,69.69
2022-08-22T05:24:38.172Z,70.14
2022-08-22T05:27:12.974Z,70.33
2022-08-22T05:29:46.765Z,70.59
2022-08-22T05:32:22.110Z,70.95
2022-08-22T05:34:55.945Z,71.17
2022-08-22T05:37:32.004Z,70.95
2022-08-22T05:40:02.291Z,71.29
2022-08-22T05:42:36.741Z,71.01
2022-08-22T05:45:11.475Z,71.18
2022-08-22T05:47:43.536Z,70.98
2022-08-22T05:50:16.691Z,70.94
2022-08-22T05:53:06.149Z,71.20
2022-08-22T05:55:46.599Z,71.23
2022-08-22T05:58:28.705Z,72.85
2022-08-22T06:01:06.114Z,71.97
2022-08-22T06:03:39.726Z,71.69
2022-08-22T06:06:16.331Z,71.13
2022-08-22T06:08:51.887Z,71.04
2022-08-22T06:11:32.773Z,71.20
2022-08-22T06:14:13.691Z,71.80
2022-08-22T06:16:48.803Z,71.49
2022-08-22T06:19:20.135Z,71.66
2022-08-22T06:21:51.901Z,71.76
2022-08-22T06:24:25.299Z,71.90
2022-08-22T06:26:55.735Z,71.59
2022-08-22T06:29:33.734Z,72.26
2022-08-22T06:32:10.511Z,71.30
2022-08-22T06:34:42.278Z,71.10
2022-08-22T06:37:16.938Z,71.06
2022-08-22T06:39:51.102Z,71.31
2022-08-22T06:42:22.818Z,70.97
2022-08-22T06:44:58.323Z,70.94
2022-08-22T06:47:29.878Z,70.51
2022-08-22T06:50:02.647Z,70.23
2022-08-22T06:52:34.309Z,69.59
2022-08-22T06:55:07.803Z,69.91
2022-08-22T06:57:39.211Z,69.42
2022-08-22T07:00:11.596Z,69.03
2022-08-22T07:02:43.491Z,68.01
2022-08-22T07:05:18.487Z,67.39
2022-08-22T07:07:50.776Z,67.14
2022-08-22T07:10:23.907Z,66.79
2022-08-22T07:12:57.743Z,67.03
2022-08-22T07:15:38.205Z,66.43
2022-08-22T07:18:09.875Z,65.88
2022-08-22T07:20:41.954Z,65.26
2022-08-22T07:23:13.451Z,65.45
2022-08-22T07:25:54.210Z,65.86
2022-08-22T07:28:36.999Z,65.04
2022-08-22T07:31:29.157Z,64.46
2022-08-22T07:34:14.941Z,64.19
2022-08-22T07:36:48.729Z,64.33
2022-08-22T07:39:31.668Z,63.96
2022-08-22T07:42:13.784Z,63.74
2022-08-22T07:45:07.039Z,63.50
2022-08-22T07:47:53.870Z,63.04
2022-08-22T07:50:28.023Z,62.79
2022-08-22T07:53:05.200Z,62.39
2022-08-22T07:55:33.434Z,62.42
2022-08-22T07:58:13.599Z,61.45
2022-08-22T08:00:45.527Z,61.13
2022-08-22T08:03:14.174Z,60.63
2022-08-22T08:05:44.937Z,61.06
2022-08-22T08:08:21.061Z,59.61
2022-08-22T08:10:52.162Z,60.39
2022-08-22T08:13:27.694Z,59.03
2022-08-22T08:15:56.142Z,58.90
2022-08-22T08:18:27.045Z,58.99
2022-08-22T08:20:59.590Z,58.16
2022-08-22T08:23:31.919Z,57.44
2022-08-22T08:26:06.581Z,57.48
2022-08-22T08:28:40.764Z,57.20
2022-08-22T08:31:20.711Z,56.40
2022-08-22T08:33:51.539Z,56.31
2022-08-22T08:36:38.272Z,55.34
2022-08-22T08:39:17.988Z,54.91
2022-08-22T08:42:15.479Z,53.42
2022-08-22T08:45:12.974Z,54.28
2022-08-22T08:48:11.229Z,54.22
2022-08-22T08:50:54.623Z,52.42
2022-08-22T08:53:45.495Z,53.13
2022-08-22T08:56:23.012Z,53.55
2022-08-22T08:59:03.170Z,51.68
2022-08-22T09:02:03.627Z,50.16
2022-08-22T09:04:50.218Z,49.49
2022-08-22T09:07:36.863Z,49.06
2022-08-22T09:10:23.574Z,47.04
2022-08-22T09:13:29.011Z,45.52
2022-08-22T09:16:17.766Z,46.84
2022-08-22T09:19:15.011Z,44.53
2022-08-22T09:22:21.384Z,43.90
2022-08-22T09:25:18.464Z,43.79
2022-08-22T09:27:54.070Z,44.71
2022-08-22T09:30:28.843Z,43.50
2022-08-22T09:33:03.207Z,43.47
2022-08-22T09:35:50.767Z,41.67
2022-08-22T09:38:39.498Z,41.78
2022-08-22T09:41:29.490Z,40.81
2022-08-22T09:44:09.505Z,40.81
2022-08-22T09:46:54.103Z,40.05
2022-08-22T09:49:36.028Z,40.82
2022-08-22T09:52:15.667Z,38.52
2022-08-22T09:55:11.779Z,39.32
2022-08-22T09:57:51.862Z,38.13
2022-08-22T10:00:25.634Z,39.55
2022-08-22T10:03:12.347Z,38.77
2022-08-22T10:05:46.895Z,38.45
2022-08-22T10:08:47.058Z,37.86
2022-08-22T10:11:23.959Z,39.14
2022-08-22T10:14:01.576Z,38.18
2022-08-22T10:16:51.354Z,38.43
2022-08-22T10:19:27.196Z,38.32
2022-08-22T10:22:21.760Z,36.93
2022-08-22T10:25:01.036Z,36.76
2022-08-22T10:27:48.167Z,36.96
2022-08-22T10:30:20.250Z,36.33
2022-08-22T10:32:57.264Z,36.74
2022-08-22T10:35:33.887Z,36.26
2022-08-22T10:38:07.029Z,36.83
2022-08-22T10:40:51.140Z,36.08
2022-08-22T10:43:29.014Z,37.45
2022-08-22T10:46:03.969Z,37.40
2022-08-22T10:48:46.384Z,37.15
2022-08-22T10:51:32.652Z,36.96
2022-08-22T10:54:25.884Z,36.13
2022-08-22T10:57:06.660Z,37.44
2022-08-22T10:59:44.681Z,36.36
2022-08-22T11:02:38.672Z,35.54
2022-08-22T11:05:23.652Z,36.65
2022-08-22T11:08:04.341Z,37.17
2022-08-22T11:10:47.777Z,36.06
2022-08-22T11:13:26.575Z,36.08
2022-08-22T11:16:01.305Z,35.64
2022-08-22T11:19:02.536Z,34.33
2022-08-22T11:21:46.978Z,34.57
2022-08-22T11:24:56.702Z,36.09
2022-08-22T11:27:38.186Z,35.83
2022-08-22T11:30:18.063Z,35.56
2022-08-22T11:33:13.748Z,35.44
2022-08-22T11:35:46.240Z,35.52
2022-08-22T11:38:32.747Z,36.49
2022-08-22T11:41:08.283Z,35.99
2022-08-22T11:43:50.677Z,36.40
2022-08-22T11:46:31.274Z,34.87
2022-08-22T11:49:31.716Z,35.09
2022-08-22T11:52:22.053Z,36.50
2022-08-22T11:55:21.559Z,34.98
2022-08-22T11:57:52.026Z,36.09
2022-08-22T12:00:30.500Z,35.56
2022-08-22T12:03:18.808Z,35.02
2022-08-22T12:05:56.089Z,34.78
2022-08-22T12:08:46.735Z,34.42
2022-08-22T12:11:23.685Z,35.15
2022-08-22T12:14:04.013Z,35.31
2022-08-22T12:16:47.363Z,34.60
2022-08-22T12:19:25.513Z,34.88
2022-08-22T12:22:39.448Z,34.89
2022-08-22T12:25:22.622Z,33.42
2022-08-22T12:28:16.369Z,33.13
2022-08-22T12:31:01.926Z,31.84
2022-08-22T12:34:02.039Z,33.85
2022-08-22T12:36:50.330Z,33.75
2022-08-22T12:40:08.747Z,32.99
2022-08-22T12:42:59.903Z,33.36
2022-08-22T12:45:41.324Z,32.13
2022-08-22T12:48:23.678Z,32.28
2022-08-22T12:50:57.637Z,32.85
2022-08-22T12:53:55.848Z,31.15
2022-08-22T12:56:34.534Z,32.26
2022-08-22T12:59:22.705Z,31.80
2022-08-22T13:01:53.749Z,32.20
2022-08-22T13:04:33.657Z,32.44
2022-08-22T13:07:17.631Z,32.18
2022-08-22T13:09:52.392Z,30.95
2022-08-22T13:12:27.694Z,31.14
2022-08-22T13:15:01.023Z,30.59
2022-08-22T13:17:31.175Z,30.91
2022-08-22T13:20:10.009Z,29.64
2022-08-22T13:22:45.415Z,30.39
2022-08-22T13:25:25.582Z,29.85
2022-08-22T13:27:59.381Z,30.75
2022-08-22T13:30:32.419Z,31.05
2022-08-22T13:33:09.539Z,30.44
2022-08-22T13:35:44.829Z,29.52
2022-08-22T13:38:26.680Z,30.47
2022-08-22T13:40:58.139Z,30.92
2022-08-22T13:43:29.813Z,30.71
2022-08-22T13:46:02.568Z,30.81
2022-08-22T13:48:46.992Z,30.98
2022-08-22T13:51:25.898Z,30.33
2022-08-22T13:54:02.708Z,31.22
2022-08-22T13:56:50.665Z,30.63
2022-08-22T13:59:50.353Z,31.43
2022-08-22T14:02:43.501Z,30.76
2022-08-22T14:05:18.702Z,30.84
2022-08-22T14:07:59.265Z,29.67
2022-08-22T14:10:35.522Z,31.02
2022-08-22T14:13:37.174Z,30.92
2022-08-22T14:16:10.366Z,31.29
2022-08-22T14:18:46.167Z,31.50
2022-08-22T14:21:26.073Z,30.77
2022-08-22T14:23:59.520Z,31.04
2022-08-22T14:26:33.048Z,30.09
2022-08-22T14:29:12.981Z,29.56
2022-08-22T14:31:58.340Z,31.22
2022-08-22T14:34:31.264Z,31.16
2022-08-22T14:37:07.967Z,30.92
2022-08-22T14:39:43.716Z,29.66
2022-08-22T14:42:18.716Z,30.67
2022-08-22T14:45:01.574Z,30.60
2022-08-22T14:48:14.547Z,30.88
2022-08-22T14:50:43.381Z,29.30
2022-08-22T14:53:14.116Z,29.75
2022-08-22T14:55:43.257Z,29.73
2022-08-22T14:58:17.496Z,30.21
2022-08-22T15:00:58.817Z,30.73
2022-08-22T15:03:32.912Z,30.83
2022-08-22T15:06:04.271Z,30.61
2022-08-22T15:08:36.741Z,31.43
2022-08-22T15:11:10.832Z,31.15
2022-08-22T15:13:43.221Z,30.91
2022-08-22T15:16:18.557Z,31.87
2022-08-22T15:18:51.697Z,32.23
2022-08-22T15:21:24.133Z,31.52
2022-08-22T15:23:56.776Z,31.12
2022-08-22T15:26:30.784Z,31.42
2022-08-22T15:29:07.262Z,31.03
2022-08-22T15:31:39.652Z,30.29
2022-08-22T15:34:14.715Z,30.46
2022-08-22T15:37:27.146Z,30.22
2022-08-22T15:40:11.695Z,30.75
2022-08-22T15:42:45.259Z,30.17
2022-08-22T15:45:33.650Z,29.86
2022-08-22T15:48:11.646Z,30.35
2022-08-22T15:50:42.982Z,29.21
2022-08-22T15:53:25.067Z,29.41
2022-08-22T15:56:31.500Z,29.24
2022-08-22T15:59:48.420Z,29.97
2022-08-22T16:02:28.951Z,29.49
2022-08-22T16:05:19.701Z,29.25
2022-08-22T16:07:51.039Z,29.55
2022-08-22T16:10:34.216Z,29.24
2022-08-22T16:13:34.965Z,30.63
2022-08-22T16:16:10.310Z,31.04
2022-08-22T16:19:09.698Z,30.84
2022-08-22T16:22:08.908Z,30.86
2022-08-22T16:25:06.928Z,29.98
2022-08-22T16:27:52.161Z,30.13
2022-08-22T16:30:33.590Z,31.36
2022-08-22T16:33:01.895Z,30.86
2022-08-22T16:36:07.246Z,30.82
2022-08-22T16:38:43.763Z,31.98
2022-08-22T16:41:27.134Z,31.32
2022-08-22T16:44:41.666Z,31.65
2022-08-22T16:47:14.260Z,31.77
2022-08-22T16:50:03.993Z,32.00
2022-08-22T16:52:53.146Z,32.05
2022-08-22T16:55:41.868Z,33.08
2022-08-22T16:58:32.468Z,31.33
2022-08-22T17:01:15.781Z,32.89
2022-08-22T17:03:54.321Z,32.38
2022-08-22T17:06:38.030Z,32.73
2022-08-22T17:09:28.608Z,32.29
2022-08-22T17:12:09.627Z,32.46
2022-08-22T17:14:49.136Z,33.42
2022-08-22T17:17:30.639Z,32.85
2022-08-22T17:20:12.911Z,32.73
2022-08-22T17:22:51.303Z,33.16
2022-08-22T17:25:26.224Z,33.25
2022-08-22T17:28:09.300Z,32.83
2022-08-22T17:30:42.404Z,33.56
2022-08-22T17:33:20.799Z,33.15
2022-08-22T17:36:06.717Z,33.29
2022-08-22T17:39:04.932Z,33.91
2022-08-22T17:41:40.268Z,34.21
2022-08-22T17:44:17.122Z,34.11
2022-08-22T17:46:50.822Z,34.64
2022-08-22T17:49:31.132Z,34.00
2022-08-22T17:52:07.681Z,33.91
2022-08-22T17:54:41.083Z,34.54
2022-08-22T17:57:13.882Z,34.94
2022-08-22T17:59:51.783Z,35.71
2022-08-22T18:02:23.544Z,35.92
2022-08-22T18:04:59.589Z,35.61
2022-08-22T18:07:52.993Z,35.36
2022-08-22T18:10:29.130Z,35.46
2022-08-22T18:13:06.916Z,35.01
2022-08-22T18:15:45.547Z,36.06
2022-08-22T18:18:29.963Z,37.34
2022-08-22T18:21:05.705Z,37.44
2022-08-22T18:23:40.518Z,37.04
2022-08-22T18:26:21.714Z,37.27
2022-08-22T18:28:56.684Z,36.95
2022-08-22T18:31:38.465Z,37.09
2022-08-22T18:34:14.862Z,37.11
2022-08-22T18:36:54.931Z,37.83
2022-08-22T18:39:27.097Z,38.13
2022-08-22T18:42:05.603Z,37.76
2022-08-22T18:44:39.820Z,38.05
2022-08-22T18:47:17.796Z,38.91
2022-08-22T18:49:53.955Z,38.03
2022-08-22T18:52:40.544Z,38.98
2022-08-22T18:55:44.606Z,38.79
2022-08-22T18:58:33.469Z,38.39
2022-08-22T19:01:24.436Z,38.62
2022-08-22T19:04:27.812Z,38.77
2022-08-22T19:07:28.154Z,38.71
2022-08-22T19:10:35.465Z,39.56
2022-08-22T19:13:25.731Z,39.03
2022-08-22T19:16:13.138Z,39.31
2022-08-22T19:18:51.642Z,39.30
2022-08-22T19:21:42.480Z,39.40
2022-08-22T19:24:32.722Z,39.25
2022-08-22T19:27:31.262Z,39.93
2022-08-22T19:30:05.978Z,39.35
2022-08-22T19:33:05.261Z,40.44
2022-08-22T19:36:06.864Z,41.37
2022-08-22T19:39:08.865Z,41.85
2022-08-22T19:41:44.738Z,41.72
2022-08-22T19:44:34.619Z,42.58
2022-08-22T19:47:09.044Z,42.14
2022-08-22T19:49:40.014Z,42.06
2022-08-22T19:52:22.308Z,42.36
2022-08-22T19:55:02.269Z,41.61
2022-08-22T19:57:41.465Z,42.15
2022-08-22T20:00:12.911Z,42.19
2022-08-22T20:02:57.628Z,42.62
2022-08-22T20:05:38.407Z,43.13
2022-08-22T20:08:22.194Z,43.00
2022-08-22T20:11:05.268Z,42.90
2022-08-22T20:13:35.216Z,42.54
2022-08-22T20:16:19.399Z,44.18
2022-08-22T20:19:16.772Z,43.91
2022-08-22T20:21:58.052Z,44.44
2022-08-22T20:24:35.402Z,44.38
2022-08-22T20:27:14.814Z,44.56
2022-08-22T20:29:53.996Z,44.58
2022-08-22T20:32:24.769Z,44.33
2022-08-22T20:34:57.269Z,44.41
2022-08-22T20:37:45.514Z,44.40
2022-08-22T20:40:55.122Z,44.85
2022-08-22T20:43:28.458Z,45.31
2022-08-22T20:46:08.247Z,45.53
2022-08-22T20:48:45.928Z,45.53
2022-08-22T20:51:16.676Z,45.80
2022-08-22T20:53:52.387Z,46.01
2022-08-22T20:56:33.262Z,46.37
2022-08-22T20:59:15.308Z,46.49
2022-08-22T21:01:44.109Z,46.46
2022-08-22T21:04:12.804Z,46.80
2022-08-22T21:06:43.396Z,46.83
2022-08-22T21:09:31.428Z,46.48
2022-08-22T21:12:01.523Z,46.76
2022-08-22T21:14:34.253Z,47.26
2022-08-22T21:17:18.326Z,47.70
2022-08-22T21:19:46.218Z,47.63
2022-08-22T21:22:18.874Z,48.10
2022-08-22T21:24:46.852Z,47.88
2022-08-22T21:27:24.368Z,49.09
2022-08-22T21:29:53.756Z,48.25
2022-08-22T21:32:35.296Z,48.99
2022-08-22T21:35:05.285Z,49.09
2022-08-22T21:37:39.980Z,49.20
2022-08-22T21:40:16.066Z,49.36
2022-08-22T21:42:47.279Z,49.33
2022-08-22T21:45:32.035Z,49.67
2022-08-22T21:48:00.140Z,49.37
2022-08-22T21:50:38.338Z,49.72
2022-08-22T21:53:11.868Z,49.69
2022-08-22T21:55:43.006Z,49.81
2022-08-22T21:58:36.715Z,50.25
2022-08-22T22:01:28.503Z,50.66
2022-08-22T22:03:57.687Z,50.32
2022-08-22T22:06:26.594Z,50.25
2022-08-22T22:08:54.635Z,49.93
2022-08-22T22:11:22.619Z,50.70
2022-08-22T22:13:50.825Z,50.72
2022-08-22T22:16:24.954Z,50.85
2022-08-22T22:18:52.987Z,50.94
2022-08-22T22:21:22.038Z,50.83
2022-08-22T22:23:50.647Z,50.83
2022-08-22T22:26:18.749Z,51.18
2022-08-22T22:28:48.970Z,51.43
2022-08-22T22:31:19.364Z,51.52
2022-08-22T22:33:47.391Z,51.88
2022-08-22T22:36:19.435Z,51.75
2022-08-22T22:38:47.965Z,51.99
2022-08-22T22:41:16.760Z,52.56
2022-08-22T22:43:44.573Z,52.29
2022-08-22T22:46:12.579Z,52.30
2022-08-22T22:48:41.753Z,52.32
2022-08-22T22:51:10.936Z,52.22
2022-08-22T22:53:42.605Z,52.26
2022-08-22T22:56:14.405Z,52.51
2022-08-22T22:58:44.341Z,52.88
2022-08-22T23:01:15.252Z,52.66
2022-08-22T23:03:45.324Z,52.76
2022-08-22T23:06:14.090Z,52.70
2022-08-22T23:08:42.429Z,52.99
2022-08-22T23:11:12.436Z,52.62
2022-08-22T23:13:42.942Z,52.95
2022-08-22T23:16:14.839Z,52.92
2022-08-22T23:18:44.910Z,53.38
2022-08-22T23:21:15.250Z,53.26
2022-08-22T23:23:43.884Z,52.72
2022-08-22T23:26:13.057Z,52.79
2022-08-22T23:28:41.590Z,52.61
2022-08-22T23:31:12.213Z,53.48
2022-08-22T23:33:40.184Z,53.70
2022-08-22T23:36:15.739Z,53.59
2022-08-22T23:38:44.248Z,53.48
2022-08-22T23:41:13.839Z,53.44
2022-08-22T23:43:43.514Z,53.72
2022-08-22T23:46:11.615Z,54.41
2022-08-22T23:48:39.557Z,54.52
2022-08-22T23:51:08.024Z,54.66
2022-08-22T23:53:38.197Z,55.08
2022-08-22T23:56:19.304Z,55.01
2022-08-22T23:58:49.149Z,54.48
